METAR Data
IDs: Format: Raw Decoded Include TAF

Data at: 1243 UTC 23 Sep 2018

KLWD 231153Z AUTO 16005KT 10SM CLR 12/09 A3011 RMK AO2 SLP194 T01170094 10133 20117 53005
KLWD 231053Z AUTO 15005KT 10SM CLR 12/09 A3010 RMK AO2 SLP191 T01170094
KLWD 230953Z AUTO 16004KT 10SM CLR 12/09 A3010 RMK AO2 SLP190 T01220094
KLWD 230853Z AUTO 16003KT 10SM CLR 12/09 A3009 RMK AO2 SLP188 T01220094 56007
KLWD 230753Z AUTO 16004KT 10SM CLR 13/09 A3009 RMK AO2 SLP189 T01280094
KLWD 230653Z AUTO 16005KT 10SM CLR 13/09 A3010 RMK AO2 SLP193 T01330094
KLWD 230553Z AUTO 15005KT 10SM CLR 13/09 A3011 RMK AO2 SLP196 T01330094 10178 20133 402000067 56007
KLWD 230453Z AUTO 13004KT 10SM CLR 14/09 A3012 RMK AO2 SLP199 T01390094
KLWD 230353Z AUTO 12003KT 10SM CLR 14/09 A3013 RMK AO2 SLP201 T01440094
KLWD 230253Z AUTO 00000KT 10SM CLR 15/09 A3014 RMK AO2 SLP204 T01500094 55000
KLWD 230153Z AUTO 13003KT 10SM CLR 16/10 A3013 RMK AO2 SLP205 T01610100
KLWD 230053Z AUTO 13004KT 10SM CLR 17/09 A3013 RMK AO2 SLP205 T01670094
KLWD 222353Z AUTO 13003KT 10SM CLR 18/10 A3014 RMK AO2 SLP207 T01780100 10200 20172 56010
KLWD 222253Z AUTO 12003KT 10SM CLR 19/09 A3014 RMK AO2 SLP206 T01940094
KLWD 222153Z AUTO VRB04KT 10SM CLR 19/08 A3015 RMK AO2 SLP209 T01940083
KLWD 222053Z AUTO 13006KT 10SM CLR 19/08 A3017 RMK AO2 SLP217 T01940083 56027
KLWD 221953Z AUTO 08003KT 10SM CLR 19/09 A3019 RMK AO2 SLP224 T01890089
KLWD 221853Z AUTO 12005KT 10SM CLR 18/09 A3023 RMK AO2 SLP236 T01830094
KLWD 221753Z AUTO 09004KT 10SM CLR 17/09 A3025 RMK AO2 SLP246 T01720089 10172 20067 58018
KLWD 221653Z AUTO VRB05KT 10SM CLR 16/08 A3028 RMK AO2 SLP256 T01560078
KLWD 221553Z AUTO 12007KT 10SM CLR 14/08 A3030 RMK AO2 SLP262 T01440078
KLWD 221453Z AUTO VRB04KT 10SM CLR 12/08 A3031 RMK AO2 SLP265 T01220078 50001
KLWD 221353Z AUTO VRB03KT 10SM CLR 11/08 A3031 RMK AO2 SLP267 T01060078
KLWD 221253Z AUTO 05005KT 10SM CLR 08/07 A3031 RMK AO2 SLP267 T00830067
KLWD 221153Z AUTO 05004KT 10SM CLR 07/06 A3031 RMK AO2 SLP266 T00670056 10089 20067 55000
KLWD 221053Z AUTO 02004KT 10SM CLR 07/06 A3030 RMK AO2 SLP264 T00670056
KLWD 220953Z AUTO 03004KT 10SM CLR 07/06 A3030 RMK AO2 SLP261 T00670056
KLWD 220853Z AUTO 01005KT 10SM CLR 07/06 A3031 RMK AO2 SLP264 T00720061 58008
KLWD 220753Z AUTO 01003KT 10SM CLR 08/06 A3032 RMK AO2 SLP268 T00780061
KLWD 220653Z AUTO 03004KT 10SM CLR 08/06 A3032 RMK AO2 SLP270 T00780061
KLWD 220553Z AUTO 05003KT 10SM CLR 09/07 A3033 RMK AO2 SLP272 T00890067 10156 20089 402000089 51007
KLWD 220453Z AUTO 05007KT 10SM CLR 10/07 A3033 RMK AO2 SLP270 T01000072
KLWD 220353Z AUTO 03009KT 10SM CLR 11/08 A3032 RMK AO2 SLP268 T01110078
KLWD 220253Z AUTO 03011KT 10SM CLR 13/08 A3031 RMK AO2 SLP263 T01280083 53019
KLWD 220153Z AUTO 01007KT 10SM CLR 13/09 A3029 RMK AO2 SLP257 T01330089
KLWD 220053Z AUTO 36006KT 10SM CLR 13/09 A3026 RMK AO2 SLP247 T01330089